This is the latest recevied weather packets stored in our database for station/object NI2O. If no packets are shown the sender has not sent any weather packets the latest 10 day(s).
| Time | Temp. | Humidity | Pressure | Rain* | Wind** | Luminosity | Snow |
|---|---|---|---|---|---|---|---|
| 1777928305 | 22.78° C | 36% | 1009.2 hPa | 0 mm | - | 312 W/m² | - |
| 1777926462 | 21.67° C | 36% | 1009.5 hPa | 0 mm | - | 397 W/m² | - |
| 1777923106 | 21.67° C | 36% | 1010 hPa | 0 mm | - | 534 W/m² | - |
| 1777921245 | 21.67° C | 35% | 1010.4 hPa | 0 mm | - | 594 W/m² | - |
| 1777920631 | 21.11° C | 36% | 1010.6 hPa | 0 mm | - | 613 W/m² | - |
| 1777918176 | 21.11° C | 35% | 1010.9 hPa | 0 mm | - | 668 W/m² | - |
| 1777907429 | 18.33° C | 43% | 1012.9 hPa | 0 mm | - | 625 W/m² | - |
| 1777906836 | 17.78° C | 42% | 1013.2 hPa | 0 mm | - | 605 W/m² | - |
| 1777905588 | 16.67° C | 48% | 1013 hPa | 0 mm | - | 570 W/m² | - |
| 1777901926 | 15° C | 58% | 1013.7 hPa | 0 mm | - | 421 W/m² | - |
| 1777896096 | 10.56° C | 74% | 1013.9 hPa | 0 mm | - | 55 W/m² | - |
| 1777894867 | 9.44° C | 75% | 1013.9 hPa | 0 mm | - | 41 W/m² | - |
| 1777892393 | 7.78° C | 79% | 1014.2 hPa | 0 mm | - | 30 W/m² | - |
| 1777891780 | 7.22° C | 78% | 1014.2 hPa | 0 mm | - | 22 W/m² | - |
| 1777891205 | 7.22° C | 77% | 1014.2 hPa | 0 mm | - | 18 W/m² | - |
| 1777890551 | 6.67° C | 76% | 1014.3 hPa | 0 mm | - | 13 W/m² | - |
| 1777888730 | 7.22° C | 71% | 1014.1 hPa | 0 mm | - | 1 W/m² | - |
| 1777887482 | 7.78° C | 70% | 1014.2 hPa | 0 mm | - | 0 W/m² | - |
| 1777886294 | 7.22° C | 70% | 1014.3 hPa | 0 mm | - | 0 W/m² | - |
| 1777885661 | 7.22° C | 71% | 1014.1 hPa | 0 mm | - | 0 W/m² | - |
| 1777885027 | 7.78° C | 68% | 1014.2 hPa | 0 mm | - | 0 W/m² | - |
| 1777883800 | 7.78° C | 65% | 1014.1 hPa | 0 mm | - | 0 W/m² | - |
| 1777881364 | 8.33° C | 59% | 1013.9 hPa | 0 mm | - | 0 W/m² | - |
| 1777871524 | 7.78° C | 60% | 1013.9 hPa | 0 mm | - | 0 W/m² | - |
| 1777866000 | 8.33° C | 61% | 1013.4 hPa | 0 mm | - | 0 W/m² | - |
* Rain latest hour (hover to see other rain measurements)
** Current wind speed in m/s (hover to see current wind gust speed)